Aviation Digital Data Service (ADDS)

Output produced by METARs form (1602 UTC 21 September 2017)
found at http://www.aviationweather.gov/adds/metars/
 
UTAA 211500Z 30005KT 9999 NSC 27/05 Q1013 NOSIG
TAF UTAA 211030Z 2112/2212 33018KT 5000 SKC 530009 
     BECMG 2115/2116 26014KT 
     TEMPO 2118/2124 2000 HZ 
     TEMPO 2207/2212 02016KT
       
UTAK 211600Z 30002KT CAVOK 26/00 Q1013 NOSIG
TAF UTAK 211030Z 2112/2212 06016KT CAVOK 530008 
     TEMPO 2112/2116 30016KT 
     BECMG 2116/2118 09014KT 
     TEMPO 2118/2203 02014KT 
     TEMPO 2205/2212 16014G24KT
       
UTAM 211600Z 25002KT 6000 SKC 25/09 Q1012 NOSIG
TAF UTAM 211030Z 2112/2212 31012KT 6000 SKC 530007 
     TEMPO 2114/2117 VRB04KT 3000 HZ 
     BECMG 2202/2204 29014KT
       
UTAT 211500Z 36008KT CAVOK 23/06 Q1013 NOSIG
TAF UTAT 211034Z 2112/2212 36016KT CAVOK 530005 
     TEMPO 2112/2118 06016KT
       
UTAV 211600Z 36002KT 7000 SKC 21/09 Q1011 NOSIG
TAF UTAV 211030Z 2112/2212 36014KT 5000 SKC 530005 
     TEMPO 2112/2118 VRB04KT
       
UTDD 211530Z 02001MPS 8000 NSC 21/08 Q1013 R09/D NOSIG RMK QFE692/0922
TAF UTDD 211500Z 2116/2204 VRB02MPS 6000 FEW066 SCT130 
     TEMPO 2116/2119 27007MPS
       
UTDK 211530Z VRB02MPS 9999 NSC 23/06 Q1012 R01/09//70 RMK QFE702/0936
TAF UTDK 211500Z 2116/2201 03005MPS 6000 FEW066 SCT130 
     TEMPO 2116/2201 VRB02MPS
       
UTDL 211530Z 26005MPS 9999 SCT200 22/06 Q1011 88CLRD70 NOSIG RMK QFE721/0961
TAF UTDL 211500Z 2116/2201 23005MPS 9999 NSC
       
UTDT 211530Z 11002MPS 090V220 9999 NSC 23/06 Q1010 35////// RMK QFE718/0958
TAF UTDT 211500Z 2116/2201 VRB02MPS 6000 FEW066 SCT130 
     TEMPO 2116/2119 21006MPS
       
UTFF 211530Z 16008KT 9999 NSC 23/11 Q1012 R18/CLRD70
TAF UTFF 211500Z 2116/2201 14010KT 9999 NSC 
     TEMPO 2116/22201 FEW050CB
       
UTFN 211530Z 31004KT 8000 NSC 21/12 Q1011 R28/CLRD70 NOSIG
TAF UTFN 211100Z 2112/2212 33010KT 9999 NSC 
     TEMPO 2113/2118 21008KT FEW050CB
       
UTNN 211530Z 34004KT CAVOK 21/03 Q1014 R33/CLRD60 NOSIG
TAF UTNN 211100Z 2112/2212 01010G20KT CAVOK 
     TEMPO 2118/2204 VRB04KT
       
UTNU 211530Z 31004KT 6000 NSC 19/06 Q1012 R31/CLRD70 NOSIG
TAF UTNU 211102Z 2112/2212 03008G18KT 8000 NSC 
     TEMPO 2112/2118 35010KT
       
UTSA 211530Z 34006KT 9999 NSC 24/01 Q1011 R25/CLRD70 NOSIG
TAF UTSA 211101Z 2112/2212 36008KT 7000 NSC 
     TEMPO 2112/2115 01012KT 
     TEMPO 2115/2202 VRB03KT 4000 FU
       
UTSB 211530Z 33008KT CAVOK 24/03 Q1011 R01/CLRD70 NOSIG
TAF UTSB 211100Z 2112/2212 34008KT 7000 NSC 
     TEMPO 2112/2115 36012KT 
     TEMPO 2115/2202 VRB03KT
       
UTSK 211530Z 29004KT 8000 NSC 24/07 Q1010 R16/CLRD70
TAF UTSK 211152Z 2113/2122 27010G20KT CAVOK
       
UTSS 211530Z 15006KT 110V190 6000 NSC 23/04 Q1013 R09/70D NOSIG
TAF UTSS 211055Z 2112/2212 11012G22KT 9999 NSC
       
UTST 211530Z 21004KT CAVOK 23/05 Q1010 R88/CLRD70 NOSIG
TAF UTST 211100Z 2112/2212 VRB06KT 6000 NSC
       
UTTT 211530Z 00000KT 4000 FU NSC 21/07 Q1012 R26R/CLRD70 NOSIG
TAF UTTT 211100Z 2112/2212 35015KT 7000 NSC
       
UTSB 211530Z 33008KT CAVOK 24/03 Q1011 R01/CLRD70 NOSIG
TAF UTSB 211100Z 2112/2212 34008KT 7000 NSC 
     TEMPO 2112/2115 36012KT 
     TEMPO 2115/2202 VRB03KT
       
UTSK 211530Z 29004KT 8000 NSC 24/07 Q1010 R16/CLRD70
TAF UTSK 211152Z 2113/2122 27010G20KT CAVOK
       
UTSS 211530Z 15006KT 110V190 6000 NSC 23/04 Q1013 R09/70D NOSIG
TAF UTSS 211055Z 2112/2212 11012G22KT 9999 NSC
       
UTST 211530Z 21004KT CAVOK 23/05 Q1010 R88/CLRD70 NOSIG
TAF UTST 211100Z 2112/2212 VRB06KT 6000 NSC
       
UTNU 211530Z 31004KT 6000 NSC 19/06 Q1012 R31/CLRD70 NOSIG
TAF UTNU 211102Z 2112/2212 03008G18KT 8000 NSC 
     TEMPO 2112/2118 35010KT
       
UTTT 211530Z 00000KT 4000 FU NSC 21/07 Q1012 R26R/CLRD70 NOSIG
TAF UTTT 211100Z 2112/2212 35015KT 7000 NSC